sensor_id;sensor_type;location;lat;lon;timestamp;pressure;altitude;pressure_sealevel;temperature;humidity
37892;BME280;45797;47.466;9.486;2023-06-22T00:02:44;95679.28;;;24.36;56.05
37892;BME280;45797;47.466;9.486;2023-06-22T00:07:54;95672.66;;;24.32;55.80
37892;BME280;45797;47.466;9.486;2023-06-22T00:12:54;95674.25;;;24.26;56.21
37892;BME280;45797;47.466;9.486;2023-06-22T00:17:54;95677.53;;;24.21;56.71
37892;BME280;45797;47.466;9.486;2023-06-22T00:23:06;95684.31;;;24.17;56.69
37892;BME280;45797;47.466;9.486;2023-06-22T00:28:15;95689.63;;;24.11;56.92
37892;BME280;45797;47.466;9.486;2023-06-22T00:33:18;95688.53;;;24.05;57.28
37892;BME280;45797;47.466;9.486;2023-06-22T00:38:19;95696.72;;;23.97;57.47
37892;BME280;45797;47.466;9.486;2023-06-22T00:43:21;95691.56;;;23.96;57.21
37892;BME280;45797;47.466;9.486;2023-06-22T00:48:22;95700.41;;;23.89;57.75
37892;BME280;45797;47.466;9.486;2023-06-22T00:59:06;95698.63;;;23.75;58.18
37892;BME280;45797;47.466;9.486;2023-06-22T01:04:09;95693.69;;;23.72;58.21
37892;BME280;45797;47.466;9.486;2023-06-22T01:09:15;95694.09;;;23.69;58.43
37892;BME280;45797;47.466;9.486;2023-06-22T01:14:39;95695.28;;;23.67;58.63
37892;BME280;45797;47.466;9.486;2023-06-22T01:19:50;95696.50;;;23.64;58.50
37892;BME280;45797;47.466;9.486;2023-06-22T01:25:08;95711.28;;;23.60;58.88
37892;BME280;45797;47.466;9.486;2023-06-22T01:30:11;95716.97;;;23.57;58.94
37892;BME280;45797;47.466;9.486;2023-06-22T01:35:14;95714.06;;;23.52;59.35
37892;BME280;45797;47.466;9.486;2023-06-22T01:40:23;95728.84;;;23.48;59.43
37892;BME280;45797;47.466;9.486;2023-06-22T01:45:27;95727.56;;;23.44;59.79
37892;BME280;45797;47.466;9.486;2023-06-22T01:50:34;95730.66;;;23.41;59.39
37892;BME280;45797;47.466;9.486;2023-06-22T01:55:34;95742.09;;;23.34;59.68
37892;BME280;45797;47.466;9.486;2023-06-22T02:00:56;95738.94;;;23.31;59.88
37892;BME280;45797;47.466;9.486;2023-06-22T02:06:13;95731.13;;;23.29;59.72
37892;BME280;45797;47.466;9.486;2023-06-22T02:11:24;95745.16;;;23.31;59.78
37892;BME280;45797;47.466;9.486;2023-06-22T02:16:31;95755.84;;;23.31;60.17
37892;BME280;45797;47.466;9.486;2023-06-22T02:21:35;95755.19;;;23.29;60.09
37892;BME280;45797;47.466;9.486;2023-06-22T02:26:37;95760.94;;;23.26;60.10
37892;BME280;45797;47.466;9.486;2023-06-22T02:31:48;95752.47;;;23.23;60.32
37892;BME280;45797;47.466;9.486;2023-06-22T02:36:57;95764.19;;;23.22;60.15
37892;BME280;45797;47.466;9.486;2023-06-22T02:42:02;95759.00;;;23.20;60.39
37892;BME280;45797;47.466;9.486;2023-06-22T02:47:04;95761.81;;;23.12;60.43
37892;BME280;45797;47.466;9.486;2023-06-22T02:52:15;95767.91;;;23.06;60.81
37892;BME280;45797;47.466;9.486;2023-06-22T02:57:17;95764.13;;;23.00;61.17
37892;BME280;45797;47.466;9.486;2023-06-22T03:02:20;95767.38;;;22.96;61.24
37892;BME280;45797;47.466;9.486;2023-06-22T03:07:29;95774.50;;;22.89;61.33
37892;BME280;45797;47.466;9.486;2023-06-22T03:12:31;95769.22;;;22.80;61.00
37892;BME280;45797;47.466;9.486;2023-06-22T03:17:31;95766.28;;;22.75;61.54
37892;BME280;45797;47.466;9.486;2023-06-22T03:22:31;95752.66;;;22.70;61.17
37892;BME280;45797;47.466;9.486;2023-06-22T03:27:41;95754.69;;;22.68;61.28
37892;BME280;45797;47.466;9.486;2023-06-22T03:32:44;95753.88;;;22.68;61.59
37892;BME280;45797;47.466;9.486;2023-06-22T03:37:50;95754.69;;;22.68;61.73
37892;BME280;45797;47.466;9.486;2023-06-22T03:42:51;95751.38;;;22.66;61.87
37892;BME280;45797;47.466;9.486;2023-06-22T03:47:51;95748.53;;;22.68;61.65
37892;BME280;45797;47.466;9.486;2023-06-22T03:52:53;95755.13;;;22.72;61.69
37892;BME280;45797;47.466;9.486;2023-06-22T03:57:55;95758.09;;;22.77;61.45
37892;BME280;45797;47.466;9.486;2023-06-22T04:03:04;95757.25;;;22.76;61.42
37892;BME280;45797;47.466;9.486;2023-06-22T04:08:05;95758.19;;;22.84;61.71
37892;BME280;45797;47.466;9.486;2023-06-22T04:13:06;95753.13;;;22.89;61.62
37892;BME280;45797;47.466;9.486;2023-06-22T04:18:08;95752.19;;;22.96;61.29
37892;BME280;45797;47.466;9.486;2023-06-22T04:23:09;95752.63;;;23.00;61.58
37892;BME280;45797;47.466;9.486;2023-06-22T04:28:11;95748.81;;;23.09;61.27
37892;BME280;45797;47.466;9.486;2023-06-22T04:33:22;95740.06;;;23.15;61.16
37892;BME280;45797;47.466;9.486;2023-06-22T04:38:23;95729.25;;;23.23;61.13
37892;BME280;45797;47.466;9.486;2023-06-22T04:43:26;95725.03;;;23.35;60.79
37892;BME280;45797;47.466;9.486;2023-06-22T04:48:30;95720.56;;;23.43;61.00
37892;BME280;45797;47.466;9.486;2023-06-22T04:53:48;95711.41;;;23.52;60.56
37892;BME280;45797;47.466;9.486;2023-06-22T04:59:04;95707.19;;;23.64;60.26
37892;BME280;45797;47.466;9.486;2023-06-22T05:04:05;95712.41;;;23.72;60.84
37892;BME280;45797;47.466;9.486;2023-06-22T05:09:12;95719.66;;;23.78;60.38
37892;BME280;45797;47.466;9.486;2023-06-22T05:14:18;95714.16;;;23.86;60.41
37892;BME280;45797;47.466;9.486;2023-06-22T05:19:34;95706.59;;;23.90;60.40
37892;BME280;45797;47.466;9.486;2023-06-22T05:24:35;95705.84;;;24.03;60.76
37892;BME280;45797;47.466;9.486;2023-06-22T05:29:36;95706.91;;;24.08;60.03
37892;BME280;45797;47.466;9.486;2023-06-22T05:34:38;95706.75;;;24.16;60.62
37892;BME280;45797;47.466;9.486;2023-06-22T05:39:38;95711.75;;;24.26;59.97
37892;BME280;45797;47.466;9.486;2023-06-22T05:44:39;95708.22;;;24.26;60.66
37892;BME280;45797;47.466;9.486;2023-06-22T05:49:42;95704.44;;;24.41;60.25
37892;BME280;45797;47.466;9.486;2023-06-22T05:54:43;95707.81;;;24.57;59.94
37892;BME280;45797;47.466;9.486;2023-06-22T05:59:51;95711.53;;;24.56;60.14
37892;BME280;45797;47.466;9.486;2023-06-22T06:04:54;95705.91;;;24.50;60.65
37892;BME280;45797;47.466;9.486;2023-06-22T06:10:04;95702.00;;;24.46;60.61
37892;BME280;45797;47.466;9.486;2023-06-22T06:15:07;95710.69;;;24.55;60.58
37892;BME280;45797;47.466;9.486;2023-06-22T06:20:08;95703.94;;;24.66;60.32
37892;BME280;45797;47.466;9.486;2023-06-22T06:25:09;95701.69;;;24.76;60.39
37892;BME280;45797;47.466;9.486;2023-06-22T06:30:19;95705.66;;;24.87;59.57
37892;BME280;45797;47.466;9.486;2023-06-22T06:35:22;95695.09;;;24.78;60.39
37892;BME280;45797;47.466;9.486;2023-06-22T06:40:29;95700.88;;;24.75;60.44
37892;BME280;45797;47.466;9.486;2023-06-22T06:45:40;95692.63;;;24.77;60.50
37892;BME280;45797;47.466;9.486;2023-06-22T06:50:46;95694.50;;;24.76;60.65
37892;BME280;45797;47.466;9.486;2023-06-22T06:55:52;95693.06;;;24.87;60.65
37892;BME280;45797;47.466;9.486;2023-06-22T07:00:58;95701.94;;;24.88;60.28
37892;BME280;45797;47.466;9.486;2023-06-22T07:05:59;95710.22;;;24.93;60.26
37892;BME280;45797;47.466;9.486;2023-06-22T07:11:01;95706.56;;;25.07;59.60
37892;BME280;45797;47.466;9.486;2023-06-22T07:16:01;95714.81;;;25.05;60.02
37892;BME280;45797;47.466;9.486;2023-06-22T07:21:02;95715.47;;;25.21;59.85
37892;BME280;45797;47.466;9.486;2023-06-22T07:26:08;95710.13;;;25.34;59.68
37892;BME280;45797;47.466;9.486;2023-06-22T07:31:09;95715.91;;;25.44;59.38
37892;BME280;45797;47.466;9.486;2023-06-22T07:36:12;95712.38;;;25.37;59.71
37892;BME280;45797;47.466;9.486;2023-06-22T07:41:13;95706.81;;;25.45;59.54
37892;BME280;45797;47.466;9.486;2023-06-22T07:46:17;95711.78;;;25.61;59.33
37892;BME280;45797;47.466;9.486;2023-06-22T07:51:22;95722.53;;;25.61;59.15
37892;BME280;45797;47.466;9.486;2023-06-22T07:56:26;95711.41;;;25.78;58.95
37892;BME280;45797;47.466;9.486;2023-06-22T08:01:29;95731.22;;;25.90;58.52
37892;BME280;45797;47.466;9.486;2023-06-22T08:06:34;95720.69;;;26.02;58.10
37892;BME280;45797;47.466;9.486;2023-06-22T08:11:34;95726.00;;;26.41;57.68
37892;BME280;45797;47.466;9.486;2023-06-22T08:16:36;95714.91;;;26.83;56.69
37892;BME280;45797;47.466;9.486;2023-06-22T08:21:39;95735.31;;;26.97;56.23
37892;BME280;45797;47.466;9.486;2023-06-22T08:26:42;95768.63;;;26.96;56.52
37892;BME280;45797;47.466;9.486;2023-06-22T08:31:42;95835.66;;;26.91;56.60
37892;BME280;45797;47.466;9.486;2023-06-22T08:36:43;95834.44;;;26.93;56.89
37892;BME280;45797;47.466;9.486;2023-06-22T08:41:47;95816.53;;;27.25;56.29
37892;BME280;45797;47.466;9.486;2023-06-22T08:46:48;95836.47;;;27.56;55.74
37892;BME280;45797;47.466;9.486;2023-06-22T08:51:55;95844.28;;;27.64;55.53
37892;BME280;45797;47.466;9.486;2023-06-22T08:56:58;95832.91;;;27.62;55.89
37892;BME280;45797;47.466;9.486;2023-06-22T09:01:59;95828.03;;;27.84;55.84
37892;BME280;45797;47.466;9.486;2023-06-22T09:07:04;95815.88;;;28.06;54.98
37892;BME280;45797;47.466;9.486;2023-06-22T09:12:07;95819.28;;;28.20;54.95
37892;BME280;45797;47.466;9.486;2023-06-22T09:17:10;95818.16;;;28.34;54.29
37892;BME280;45797;47.466;9.486;2023-06-22T09:22:10;95824.94;;;28.43;54.59
37892;BME280;45797;47.466;9.486;2023-06-22T09:27:10;95818.00;;;28.72;53.93
37892;BME280;45797;47.466;9.486;2023-06-22T09:32:18;95818.13;;;29.21;52.96
37892;BME280;45797;47.466;9.486;2023-06-22T09:37:19;95812.22;;;29.61;52.25
37892;BME280;45797;47.466;9.486;2023-06-22T09:42:20;95801.88;;;29.99;51.67
37892;BME280;45797;47.466;9.486;2023-06-22T09:47:21;95781.63;;;30.43;50.80
37892;BME280;45797;47.466;9.486;2023-06-22T09:52:34;95782.56;;;30.84;50.35
37892;BME280;45797;47.466;9.486;2023-06-22T09:57:34;95761.75;;;31.25;49.71
37892;BME280;45797;47.466;9.486;2023-06-22T10:02:41;95767.16;;;31.53;48.96
37892;BME280;45797;47.466;9.486;2023-06-22T10:07:46;95755.94;;;31.62;49.19
37892;BME280;45797;47.466;9.486;2023-06-22T10:12:55;95752.34;;;31.73;49.17
37892;BME280;45797;47.466;9.486;2023-06-22T10:17:56;95753.22;;;31.90;48.73
37892;BME280;45797;47.466;9.486;2023-06-22T10:23:12;95752.16;;;32.08;48.52
37892;BME280;45797;47.466;9.486;2023-06-22T10:28:15;95747.97;;;32.17;48.16
37892;BME280;45797;47.466;9.486;2023-06-22T10:33:16;95738.84;;;32.06;48.40
37892;BME280;45797;47.466;9.486;2023-06-22T10:38:21;95737.94;;;32.01;48.80
37892;BME280;45797;47.466;9.486;2023-06-22T10:43:21;95726.03;;;32.02;48.55
37892;BME280;45797;47.466;9.486;2023-06-22T10:48:21;95722.31;;;32.25;48.03
37892;BME280;45797;47.466;9.486;2023-06-22T10:53:29;95719.84;;;32.40;47.51
37892;BME280;45797;47.466;9.486;2023-06-22T10:58:29;95711.41;;;32.36;47.33
37892;BME280;45797;47.466;9.486;2023-06-22T11:03:31;95703.56;;;32.40;47.60
37892;BME280;45797;47.466;9.486;2023-06-22T11:08:33;95707.19;;;32.46;47.33
37892;BME280;45797;47.466;9.486;2023-06-22T11:13:38;95707.94;;;32.41;47.13
37892;BME280;45797;47.466;9.486;2023-06-22T11:18:39;95717.38;;;32.38;47.31
37892;BME280;45797;47.466;9.486;2023-06-22T11:23:39;95717.06;;;32.52;47.31
37892;BME280;45797;47.466;9.486;2023-06-22T11:28:42;95706.13;;;32.68;46.57
37892;BME280;45797;47.466;9.486;2023-06-22T11:33:43;95716.28;;;32.78;46.59
37892;BME280;45797;47.466;9.486;2023-06-22T11:38:56;95714.31;;;32.90;46.46
37892;BME280;45797;47.466;9.486;2023-06-22T11:43:57;95707.41;;;32.83;46.35
37892;BME280;45797;47.466;9.486;2023-06-22T11:48:59;95719.50;;;32.53;46.78
37892;BME280;45797;47.466;9.486;2023-06-22T11:54:07;95718.03;;;32.12;47.39
37892;BME280;45797;47.466;9.486;2023-06-22T11:59:07;95710.50;;;31.80;48.00
37892;BME280;45797;47.466;9.486;2023-06-22T12:04:08;95704.81;;;31.65;48.21
37892;BME280;45797;47.466;9.486;2023-06-22T12:09:17;95707.22;;;31.33;48.76
37892;BME280;45797;47.466;9.486;2023-06-22T12:14:26;95712.69;;;31.10;49.12
37892;BME280;45797;47.466;9.486;2023-06-22T12:19:32;95700.81;;;31.11;48.78
37892;BME280;45797;47.466;9.486;2023-06-22T12:24:38;95706.19;;;31.22;48.95
37892;BME280;45797;47.466;9.486;2023-06-22T12:29:40;95716.41;;;31.32;48.26
37892;BME280;45797;47.466;9.486;2023-06-22T12:34:53;95704.44;;;31.45;48.25
37892;BME280;45797;47.466;9.486;2023-06-22T12:40:00;95700.94;;;31.61;48.16
37892;BME280;45797;47.466;9.486;2023-06-22T12:45:02;95702.06;;;31.94;47.67
37892;BME280;45797;47.466;9.486;2023-06-22T12:50:02;95701.78;;;32.12;47.33
37892;BME280;45797;47.466;9.486;2023-06-22T12:55:03;95710.75;;;31.96;47.49
37892;BME280;45797;47.466;9.486;2023-06-22T13:00:05;95713.47;;;32.13;47.55
37892;BME280;45797;47.466;9.486;2023-06-22T13:05:08;95706.53;;;32.38;47.25
37892;BME280;45797;47.466;9.486;2023-06-22T13:10:10;95703.78;;;32.77;46.28
37892;BME280;45797;47.466;9.486;2023-06-22T13:15:11;95702.06;;;33.10;45.98
37892;BME280;45797;47.466;9.486;2023-06-22T13:20:20;95703.34;;;33.29;45.23
37892;BME280;45797;47.466;9.486;2023-06-22T13:25:21;95705.19;;;33.45;45.31
37892;BME280;45797;47.466;9.486;2023-06-22T13:30:27;95700.22;;;33.69;44.93
37892;BME280;45797;47.466;9.486;2023-06-22T13:35:28;95692.19;;;34.12;44.01
37892;BME280;45797;47.466;9.486;2023-06-22T13:40:32;95685.34;;;34.99;43.11
37892;BME280;45797;47.466;9.486;2023-06-22T13:45:32;95677.59;;;35.78;41.59
37892;BME280;45797;47.466;9.486;2023-06-22T13:50:42;95674.59;;;36.26;41.00
37892;BME280;45797;47.466;9.486;2023-06-22T13:56:11;95680.34;;;36.14;41.58
37892;BME280;45797;47.466;9.486;2023-06-22T14:01:19;95669.41;;;35.78;42.08
37892;BME280;45797;47.466;9.486;2023-06-22T14:06:26;95667.78;;;35.77;41.94
37892;BME280;45797;47.466;9.486;2023-06-22T14:11:38;95674.34;;;35.66;41.92
37892;BME280;45797;47.466;9.486;2023-06-22T14:16:40;95671.88;;;35.75;41.65
37892;BME280;45797;47.466;9.486;2023-06-22T14:21:46;95680.06;;;35.85;41.43
37892;BME280;45797;47.466;9.486;2023-06-22T14:26:48;95679.50;;;35.78;41.39
37892;BME280;45797;47.466;9.486;2023-06-22T14:31:57;95691.25;;;35.68;41.37
37892;BME280;45797;47.466;9.486;2023-06-22T14:37:00;95710.25;;;35.38;42.03
37892;BME280;45797;47.466;9.486;2023-06-22T14:42:02;95739.31;;;35.12;42.63
37892;BME280;45797;47.466;9.486;2023-06-22T14:47:03;95693.25;;;35.05;42.15
37892;BME280;45797;47.466;9.486;2023-06-22T14:52:05;95685.09;;;35.15;42.82
37892;BME280;45797;47.466;9.486;2023-06-22T14:57:06;95684.06;;;35.27;42.55
37892;BME280;45797;47.466;9.486;2023-06-22T15:02:07;95696.94;;;35.41;42.49
37892;BME280;45797;47.466;9.486;2023-06-22T15:07:18;95713.06;;;35.84;42.35
37892;BME280;45797;47.466;9.486;2023-06-22T15:12:19;95726.22;;;36.12;41.52
37892;BME280;45797;47.466;9.486;2023-06-22T15:17:22;95708.03;;;36.98;39.95
37892;BME280;45797;47.466;9.486;2023-06-22T15:22:22;95684.03;;;36.79;39.54
37892;BME280;45797;47.466;9.486;2023-06-22T15:27:22;95657.91;;;36.48;40.26
37892;BME280;45797;47.466;9.486;2023-06-22T15:32:23;95662.75;;;36.71;39.87
37892;BME280;45797;47.466;9.486;2023-06-22T15:37:23;95669.19;;;37.06;39.21
37892;BME280;45797;47.466;9.486;2023-06-22T15:42:25;95668.25;;;37.70;37.83
37892;BME280;45797;47.466;9.486;2023-06-22T15:47:32;95645.88;;;37.97;37.45
37892;BME280;45797;47.466;9.486;2023-06-22T15:52:34;95643.59;;;38.62;36.68
37892;BME280;45797;47.466;9.486;2023-06-22T15:57:41;95654.22;;;40.06;34.69
37892;BME280;45797;47.466;9.486;2023-06-22T16:02:48;95649.94;;;40.46;33.36
37892;BME280;45797;47.466;9.486;2023-06-22T16:07:54;95645.75;;;39.69;34.75
37892;BME280;45797;47.466;9.486;2023-06-22T16:12:59;95639.75;;;38.87;35.57
37892;BME280;45797;47.466;9.486;2023-06-22T16:18:14;95635.72;;;38.32;36.43
37892;BME280;45797;47.466;9.486;2023-06-22T16:23:18;95629.78;;;37.17;37.49
37892;BME280;45797;47.466;9.486;2023-06-22T16:28:18;95639.97;;;35.86;39.57
37892;BME280;45797;47.466;9.486;2023-06-22T16:33:18;95634.09;;;34.90;40.24
37892;BME280;45797;47.466;9.486;2023-06-22T16:38:18;95629.84;;;34.10;41.52
37892;BME280;45797;47.466;9.486;2023-06-22T16:43:20;95643.78;;;33.49;41.89
37892;BME280;45797;47.466;9.486;2023-06-22T16:48:27;95669.53;;;32.93;41.99
37892;BME280;45797;47.466;9.486;2023-06-22T16:53:30;95686.97;;;32.36;41.87
37892;BME280;45797;47.466;9.486;2023-06-22T16:58:31;95707.03;;;31.68;42.58
37892;BME280;45797;47.466;9.486;2023-06-22T17:03:39;95716.88;;;31.17;42.92
37892;BME280;45797;47.466;9.486;2023-06-22T17:09:02;95707.63;;;30.61;43.90
37892;BME280;45797;47.466;9.486;2023-06-22T17:14:05;95710.94;;;30.28;43.23
37892;BME280;45797;47.466;9.486;2023-06-22T17:19:08;95691.88;;;30.00;43.65
37892;BME280;45797;47.466;9.486;2023-06-22T17:24:12;95727.75;;;29.53;44.02
37892;BME280;45797;47.466;9.486;2023-06-22T17:29:14;95710.50;;;28.94;44.89
37892;BME280;45797;47.466;9.486;2023-06-22T17:34:18;95714.06;;;28.52;45.77
37892;BME280;45797;47.466;9.486;2023-06-22T17:39:26;95742.19;;;28.19;45.83
37892;BME280;45797;47.466;9.486;2023-06-22T17:44:30;95738.94;;;27.85;46.45
37892;BME280;45797;47.466;9.486;2023-06-22T17:49:36;95733.56;;;27.54;47.42
37892;BME280;45797;47.466;9.486;2023-06-22T17:54:38;95713.44;;;26.87;49.05
37892;BME280;45797;47.466;9.486;2023-06-22T17:59:50;95652.25;;;26.24;50.37
37892;BME280;45797;47.466;9.486;2023-06-22T18:05:02;95652.50;;;25.96;51.03
37892;BME280;45797;47.466;9.486;2023-06-22T18:10:07;95626.34;;;25.72;51.33
37892;BME280;45797;47.466;9.486;2023-06-22T18:15:19;95618.47;;;25.57;51.61
37892;BME280;45797;47.466;9.486;2023-06-22T18:20:37;95639.13;;;25.43;52.12
37892;BME280;45797;47.466;9.486;2023-06-22T18:25:39;95694.63;;;25.36;52.22
37892;BME280;45797;47.466;9.486;2023-06-22T18:30:41;95724.78;;;25.31;52.98
37892;BME280;45797;47.466;9.486;2023-06-22T18:35:43;95808.69;;;25.19;53.27
37892;BME280;45797;47.466;9.486;2023-06-22T18:40:50;95837.88;;;25.00;53.36
37892;BME280;45797;47.466;9.486;2023-06-22T18:45:53;95849.78;;;24.91;53.72
37892;BME280;45797;47.466;9.486;2023-06-22T18:51:21;95866.69;;;24.85;53.72
37892;BME280;45797;47.466;9.486;2023-06-22T18:56:22;95873.03;;;24.77;53.92
37892;BME280;45797;47.466;9.486;2023-06-22T19:01:25;95880.72;;;24.59;54.89
37892;BME280;45797;47.466;9.486;2023-06-22T19:06:56;95885.06;;;24.32;54.89
37892;BME280;45797;47.466;9.486;2023-06-22T19:12:17;95879.94;;;24.16;55.09
37892;BME280;45797;47.466;9.486;2023-06-22T19:17:20;95877.66;;;24.13;55.08
37892;BME280;45797;47.466;9.486;2023-06-22T19:28:05;95891.75;;;24.00;54.79
37892;BME280;45797;47.466;9.486;2023-06-22T19:33:23;95885.31;;;23.94;54.36
37892;BME280;45797;47.466;9.486;2023-06-22T19:38:38;95890.34;;;23.83;54.08
37892;BME280;45797;47.466;9.486;2023-06-22T19:43:42;95907.25;;;23.69;54.40
37892;BME280;45797;47.466;9.486;2023-06-22T19:48:49;95919.34;;;23.50;54.44
37892;BME280;45797;47.466;9.486;2023-06-22T19:53:53;95892.75;;;23.42;54.24
37892;BME280;45797;47.466;9.486;2023-06-22T19:59:20;95906.75;;;23.29;53.92
37892;BME280;45797;47.466;9.486;2023-06-22T20:04:26;95903.06;;;23.30;53.63
37892;BME280;45797;47.466;9.486;2023-06-22T20:09:30;95891.31;;;23.24;53.30
37892;BME280;45797;47.466;9.486;2023-06-22T20:14:44;95905.59;;;23.17;53.35
37892;BME280;45797;47.466;9.486;2023-06-22T20:19:53;95900.63;;;23.14;53.05
37892;BME280;45797;47.466;9.486;2023-06-22T20:24:58;95904.66;;;23.09;52.90
37892;BME280;45797;47.466;9.486;2023-06-22T20:30:22;95904.03;;;23.07;52.62
37892;BME280;45797;47.466;9.486;2023-06-22T20:35:23;95908.94;;;23.04;52.58
37892;BME280;45797;47.466;9.486;2023-06-22T20:40:43;95911.13;;;23.00;52.39
37892;BME280;45797;47.466;9.486;2023-06-22T20:45:48;95892.41;;;23.00;52.16
37892;BME280;45797;47.466;9.486;2023-06-22T20:50:53;95909.66;;;22.98;51.97
37892;BME280;45797;47.466;9.486;2023-06-22T20:55:58;95902.22;;;22.93;52.24
37892;BME280;45797;47.466;9.486;2023-06-22T21:01:01;95920.25;;;22.91;51.97
37892;BME280;45797;47.466;9.486;2023-06-22T21:06:06;95925.31;;;22.86;52.01
37892;BME280;45797;47.466;9.486;2023-06-22T21:11:06;95926.50;;;22.84;51.81
37892;BME280;45797;47.466;9.486;2023-06-22T21:16:07;95940.00;;;22.82;51.48
37892;BME280;45797;47.466;9.486;2023-06-22T21:21:09;95938.53;;;22.79;51.57
37892;BME280;45797;47.466;9.486;2023-06-22T21:26:15;95940.75;;;22.76;51.51
37892;BME280;45797;47.466;9.486;2023-06-22T21:31:25;95957.31;;;22.71;51.91
37892;BME280;45797;47.466;9.486;2023-06-22T21:36:26;95949.50;;;22.70;51.65
37892;BME280;45797;47.466;9.486;2023-06-22T21:41:35;95970.75;;;22.63;51.77
37892;BME280;45797;47.466;9.486;2023-06-22T21:46:36;95985.66;;;22.58;51.91
37892;BME280;45797;47.466;9.486;2023-06-22T21:52:09;95991.06;;;22.49;51.96
37892;BME280;45797;47.466;9.486;2023-06-22T21:57:11;96007.28;;;22.48;52.22
37892;BME280;45797;47.466;9.486;2023-06-22T22:02:16;96032.38;;;22.39;52.38
37892;BME280;45797;47.466;9.486;2023-06-22T22:07:20;96035.81;;;22.24;53.37
37892;BME280;45797;47.466;9.486;2023-06-22T22:12:22;96025.25;;;22.08;53.22
37892;BME280;45797;47.466;9.486;2023-06-22T22:17:23;96030.28;;;21.95;54.14
37892;BME280;45797;47.466;9.486;2023-06-22T22:22:25;96025.00;;;21.79;54.63
37892;BME280;45797;47.466;9.486;2023-06-22T22:27:35;96019.47;;;21.49;55.35
37892;BME280;45797;47.466;9.486;2023-06-22T22:32:35;96008.75;;;21.26;56.19
37892;BME280;45797;47.466;9.486;2023-06-22T22:37:52;96012.94;;;21.04;56.67
37892;BME280;45797;47.466;9.486;2023-06-22T22:42:56;96001.63;;;20.94;56.93
37892;BME280;45797;47.466;9.486;2023-06-22T22:48:13;95998.66;;;20.81;57.18
37892;BME280;45797;47.466;9.486;2023-06-22T22:53:18;96028.59;;;20.83;57.08
37892;BME280;45797;47.466;9.486;2023-06-22T22:58:19;96027.44;;;20.86;57.34
37892;BME280;45797;47.466;9.486;2023-06-22T23:03:20;96028.28;;;20.86;57.64
37892;BME280;45797;47.466;9.486;2023-06-22T23:08:22;96057.88;;;20.83;57.80
37892;BME280;45797;47.466;9.486;2023-06-22T23:13:26;96068.22;;;20.78;58.42
37892;BME280;45797;47.466;9.486;2023-06-22T23:18:28;96088.88;;;20.76;59.26
37892;BME280;45797;47.466;9.486;2023-06-22T23:23:42;96090.00;;;20.73;58.95
37892;BME280;45797;47.466;9.486;2023-06-22T23:28:43;96074.56;;;20.69;59.60
37892;BME280;45797;47.466;9.486;2023-06-22T23:33:44;96074.88;;;20.66;60.32
37892;BME280;45797;47.466;9.486;2023-06-22T23:38:44;96108.34;;;20.68;60.25
37892;BME280;45797;47.466;9.486;2023-06-22T23:43:46;96118.47;;;20.73;60.66
37892;BME280;45797;47.466;9.486;2023-06-22T23:49:05;96139.63;;;20.66;60.93
37892;BME280;45797;47.466;9.486;2023-06-22T23:54:06;96137.94;;;20.65;61.82
37892;BME280;45797;47.466;9.486;2023-06-22T23:59:13;96130.63;;;20.67;61.82
